createdAt,value
2019-02-27T00:00:20.000Z,0.10
2019-02-27T00:02:48.544Z,0.10
2019-02-27T00:05:17.182Z,0.00
2019-02-27T00:07:45.643Z,0.00
2019-02-27T00:10:14.331Z,0.10
2019-02-27T00:12:42.889Z,0.10
2019-02-27T00:15:11.477Z,0.10
2019-02-27T00:17:39.934Z,0.10
2019-02-27T00:20:08.959Z,0.00
2019-02-27T00:22:37.529Z,0.00
2019-02-27T00:25:06.214Z,-0.10
2019-02-27T00:27:34.981Z,-0.30
2019-02-27T00:30:05.584Z,-0.20
2019-02-27T00:32:33.901Z,-0.30
2019-02-27T00:35:06.414Z,-0.30
2019-02-27T00:37:32.577Z,-0.30
2019-02-27T00:40:05.318Z,-0.30
2019-02-27T00:42:33.717Z,-0.30
2019-02-27T00:45:01.578Z,-0.40
2019-02-27T00:47:30.036Z,-0.40
2019-02-27T00:49:58.570Z,-0.40
2019-02-27T00:52:27.028Z,-0.30
2019-02-27T00:54:55.480Z,-0.20
2019-02-27T00:57:23.941Z,-0.20
2019-02-27T00:59:52.411Z,-0.30
2019-02-27T01:02:20.906Z,-0.40
2019-02-27T01:04:49.415Z,-0.50
2019-02-27T01:07:20.674Z,-0.50
2019-02-27T01:09:48.259Z,-0.50
2019-02-27T01:12:16.905Z,-0.50
2019-02-27T01:14:45.364Z,-0.40
2019-02-27T01:17:13.831Z,-0.40
2019-02-27T01:19:43.066Z,-0.40
2019-02-27T01:22:11.737Z,-0.20
2019-02-27T01:24:40.202Z,-0.20
2019-02-27T01:27:08.658Z,-0.30
2019-02-27T01:29:37.104Z,-0.50
2019-02-27T01:32:05.611Z,-0.50
2019-02-27T01:34:34.064Z,-0.50
2019-02-27T01:37:02.542Z,-0.50
2019-02-27T01:39:31.012Z,-0.60
2019-02-27T01:41:59.486Z,-0.60
2019-02-27T01:44:28.018Z,-0.60
2019-02-27T01:46:56.557Z,-0.50
2019-02-27T01:49:26.672Z,-0.50
2019-02-27T01:51:55.166Z,-0.70
2019-02-27T01:54:23.680Z,-0.70
2019-02-27T01:56:52.133Z,-0.70
2019-02-27T01:59:20.595Z,-0.70
2019-02-27T02:01:49.048Z,-0.60
2019-02-27T02:04:20.004Z,-0.50
2019-02-27T02:06:47.711Z,-0.70
2019-02-27T02:09:33.110Z,-0.80
2019-02-27T02:12:07.950Z,-0.90
2019-02-27T02:14:54.380Z,-1.00
2019-02-27T02:17:55.273Z,-1.00
2019-02-27T02:20:29.742Z,-1.00
2019-02-27T02:23:16.409Z,-1.00
2019-02-27T02:26:04.315Z,-1.10
2019-02-27T02:28:51.093Z,-1.00
2019-02-27T02:31:40.767Z,-0.90
2019-02-27T02:34:22.973Z,-0.80
2019-02-27T02:37:02.536Z,-0.70
2019-02-27T02:39:33.751Z,-0.70
2019-02-27T02:42:24.699Z,-0.80
2019-02-27T02:45:05.796Z,-0.90
2019-02-27T02:47:55.410Z,-1.00
2019-02-27T02:50:37.537Z,-1.10
2019-02-27T02:53:18.084Z,-1.10
2019-02-27T02:56:07.626Z,-1.10
2019-02-27T02:58:54.180Z,-1.20
2019-02-27T03:01:25.797Z,-1.20
2019-02-27T03:04:15.490Z,-1.30
2019-02-27T03:06:52.889Z,-1.30
2019-02-27T03:09:31.429Z,-1.20
2019-02-27T03:12:21.705Z,-1.20
2019-02-27T03:14:58.945Z,-1.20
2019-02-27T03:17:53.714Z,-1.20
2019-02-27T03:20:33.098Z,-1.20
2019-02-27T03:23:29.901Z,-1.20
2019-02-27T03:26:16.471Z,-1.20
2019-02-27T03:28:58.597Z,-1.20
2019-02-27T03:31:42.288Z,-1.30
2019-02-27T03:34:29.254Z,-1.30
2019-02-27T03:37:20.447Z,-1.40
2019-02-27T03:40:25.419Z,-1.60
2019-02-27T03:43:22.911Z,-1.60
2019-02-27T03:45:54.529Z,-1.80
2019-02-27T03:48:34.693Z,-1.70
2019-02-27T03:51:06.286Z,-1.70
2019-02-27T03:53:46.401Z,-1.80
2019-02-27T03:56:35.623Z,-1.70
2019-02-27T03:59:28.235Z,-1.80
2019-02-27T04:02:06.884Z,-1.80
2019-02-27T04:04:44.270Z,-1.90
2019-02-27T04:07:18.710Z,-1.80
2019-02-27T04:09:47.706Z,-1.60
2019-02-27T04:12:17.427Z,-1.70
2019-02-27T04:14:46.015Z,-1.80
2019-02-27T04:17:14.492Z,-1.90
2019-02-27T04:19:43.084Z,-1.90
2019-02-27T04:22:11.549Z,-1.90
2019-02-27T04:24:40.010Z,-1.80
2019-02-27T04:27:08.474Z,-1.80
2019-02-27T04:29:40.882Z,-1.60
2019-02-27T04:32:09.675Z,-1.70
2019-02-27T04:34:37.376Z,-1.80
2019-02-27T04:37:06.301Z,-1.90
2019-02-27T04:39:35.751Z,-2.00
2019-02-27T04:42:05.028Z,-2.00
2019-02-27T04:44:35.929Z,-2.00
2019-02-27T04:47:03.658Z,-2.00
2019-02-27T04:49:34.755Z,-1.90
2019-02-27T04:52:02.382Z,-1.80
2019-02-27T04:54:30.842Z,-1.90
2019-02-27T04:56:59.295Z,-1.80
2019-02-27T04:59:27.903Z,-1.80
2019-02-27T05:01:56.344Z,-1.60
2019-02-27T05:04:25.168Z,-1.70
2019-02-27T05:06:53.615Z,-1.80
2019-02-27T05:09:22.063Z,-1.80
2019-02-27T05:11:50.528Z,-1.80
2019-02-27T05:14:19.155Z,-1.80
2019-02-27T05:16:47.841Z,-1.80
2019-02-27T05:19:16.350Z,-1.80
2019-02-27T05:21:44.916Z,-1.90
2019-02-27T05:24:13.381Z,-1.90
2019-02-27T05:26:41.819Z,-1.80
2019-02-27T05:29:10.305Z,-1.80
2019-02-27T05:31:41.662Z,-1.90
2019-02-27T05:34:12.928Z,-1.90
2019-02-27T05:36:40.400Z,-1.90
2019-02-27T05:39:08.938Z,-1.90
2019-02-27T05:41:37.389Z,-2.00
2019-02-27T05:44:05.843Z,-2.00
2019-02-27T05:46:35.716Z,-2.00
2019-02-27T05:49:04.492Z,-2.10
2019-02-27T05:51:32.962Z,-2.10
2019-02-27T05:54:01.411Z,-2.10
2019-02-27T05:56:29.888Z,-2.00
2019-02-27T05:58:58.422Z,-2.00
2019-02-27T06:01:26.943Z,-2.10
2019-02-27T06:03:55.405Z,-2.00
2019-02-27T06:06:24.010Z,-2.00
2019-02-27T06:08:52.472Z,-2.00
2019-02-27T06:11:20.944Z,-2.10
2019-02-27T06:13:49.401Z,-2.10
2019-02-27T06:16:17.860Z,-2.00
2019-02-27T06:18:46.311Z,-1.90
2019-02-27T06:21:16.410Z,-1.90
2019-02-27T06:23:45.121Z,-1.90
2019-02-27T06:26:13.594Z,-2.00
2019-02-27T06:28:42.049Z,-2.00
2019-02-27T06:31:11.978Z,-2.00
2019-02-27T06:33:44.991Z,-1.90
2019-02-27T06:36:13.709Z,-1.90
2019-02-27T06:38:42.165Z,-1.80
2019-02-27T06:41:15.298Z,-1.80
2019-02-27T06:43:40.825Z,-1.80
2019-02-27T06:46:09.283Z,-1.70
2019-02-27T06:48:37.735Z,-1.60
2019-02-27T06:51:06.200Z,-1.50
2019-02-27T06:53:34.718Z,-1.40
2019-02-27T06:56:03.962Z,-1.30
2019-02-27T06:58:32.709Z,-1.30
2019-02-27T07:01:01.156Z,-1.20
2019-02-27T07:03:32.788Z,-1.10
2019-02-27T07:05:59.830Z,-1.00
2019-02-27T07:08:28.307Z,-0.90
2019-02-27T07:10:58.978Z,-0.80
2019-02-27T07:13:29.855Z,-0.70
2019-02-27T07:15:57.284Z,-0.50
2019-02-27T07:18:25.860Z,-0.40
2019-02-27T07:20:55.646Z,-0.30
2019-02-27T07:23:24.499Z,-0.20
2019-02-27T07:25:53.022Z,-0.10
2019-02-27T07:28:21.483Z,0.00
2019-02-27T07:30:50.075Z,0.20
2019-02-27T07:33:18.622Z,0.30
2019-02-27T07:35:47.075Z,0.50
2019-02-27T07:38:15.545Z,0.70
2019-02-27T07:40:43.990Z,0.90
2019-02-27T07:43:12.440Z,1.10
2019-02-27T07:45:42.738Z,1.40
2019-02-27T07:48:11.096Z,1.80
2019-02-27T07:50:39.532Z,3.10
2019-02-27T07:53:08.008Z,5.10
2019-02-27T07:55:36.431Z,6.80
2019-02-27T07:58:04.903Z,9.20
2019-02-27T08:00:33.354Z,10.00
2019-02-27T08:03:01.876Z,11.70
2019-02-27T08:05:30.353Z,13.40
2019-02-27T08:07:58.809Z,14.60
2019-02-27T08:10:27.333Z,15.10
2019-02-27T08:12:56.670Z,16.90
2019-02-27T08:15:25.803Z,16.40
2019-02-27T08:17:57.590Z,18.80
2019-02-27T08:20:24.661Z,20.40
2019-02-27T08:22:53.124Z,19.00
2019-02-27T08:25:21.569Z,19.70
2019-02-27T08:27:50.019Z,20.20
2019-02-27T08:30:28.316Z,20.80
2019-02-27T08:32:56.789Z,22.60
2019-02-27T08:35:25.262Z,23.20
2019-02-27T08:38:02.225Z,22.50
2019-02-27T08:40:25.137Z,21.90
2019-02-27T08:42:53.783Z,22.60
2019-02-27T08:45:26.797Z,23.20
2019-02-27T08:47:52.430Z,22.30
2019-02-27T08:50:24.718Z,22.40
2019-02-27T08:52:53.244Z,24.40
2019-02-27T08:55:22.859Z,26.50
2019-02-27T08:57:56.029Z,25.40
2019-02-27T09:00:32.201Z,26.00
2019-02-27T09:03:02.930Z,25.30
2019-02-27T09:05:30.864Z,26.50
2019-02-27T09:07:59.406Z,26.90
2019-02-27T09:10:30.486Z,26.60
2019-02-27T09:13:05.357Z,26.80
2019-02-27T09:15:28.354Z,27.10
2019-02-27T09:17:59.294Z,27.20
2019-02-27T09:20:27.017Z,28.70
2019-02-27T09:22:55.924Z,29.00
2019-02-27T09:25:24.944Z,30.40
2019-02-27T09:27:53.625Z,29.70
2019-02-27T09:30:28.841Z,28.50
2019-02-27T09:32:55.358Z,30.20
2019-02-27T09:35:23.910Z,30.30
2019-02-27T09:37:52.499Z,30.40
2019-02-27T09:40:25.589Z,29.90
2019-02-27T09:42:54.167Z,29.90
2019-02-27T09:45:35.680Z,28.60
2019-02-27T09:48:04.769Z,28.50
2019-02-27T09:50:48.405Z,29.90
2019-02-27T09:53:17.164Z,31.20
2019-02-27T09:55:45.620Z,32.10
2019-02-27T09:58:15.069Z,29.50
2019-02-27T10:00:51.977Z,30.00
2019-02-27T10:03:21.520Z,29.50
2019-02-27T10:05:50.305Z,28.70
2019-02-27T10:08:18.790Z,27.70
2019-02-27T10:10:47.317Z,28.10
2019-02-27T10:13:15.772Z,30.00
2019-02-27T10:15:44.394Z,31.00
2019-02-27T10:18:12.858Z,32.10
2019-02-27T10:20:41.394Z,33.30
2019-02-27T10:23:09.858Z,31.60
2019-02-27T10:25:43.228Z,31.70
2019-02-27T10:28:10.609Z,29.80
2019-02-27T10:30:38.899Z,29.30
2019-02-27T10:33:07.651Z,30.20
2019-02-27T10:35:36.262Z,30.20
2019-02-27T10:38:04.811Z,29.60
2019-02-27T10:40:33.505Z,30.50
2019-02-27T10:43:02.056Z,30.60
2019-02-27T10:45:30.555Z,29.90
2019-02-27T10:47:59.021Z,30.00
2019-02-27T10:50:27.486Z,30.70
2019-02-27T10:52:56.004Z,31.00
2019-02-27T10:55:24.476Z,31.20
2019-02-27T10:57:53.097Z,31.40
2019-02-27T11:00:35.670Z,30.60
2019-02-27T11:03:04.222Z,29.10
2019-02-27T11:05:39.831Z,29.30
2019-02-27T11:08:08.375Z,30.20
2019-02-27T11:10:36.989Z,31.00
2019-02-27T11:13:06.666Z,30.00
2019-02-27T11:15:35.490Z,30.30
2019-02-27T11:18:05.439Z,30.30
2019-02-27T11:20:34.468Z,29.60
2019-02-27T11:23:06.417Z,29.80
2019-02-27T11:25:33.271Z,28.20
2019-02-27T11:28:01.734Z,27.70
2019-02-27T11:30:36.945Z,27.70
2019-02-27T11:33:05.793Z,26.50
2019-02-27T11:35:34.404Z,25.80
2019-02-27T11:38:02.939Z,25.60
2019-02-27T11:40:31.672Z,26.00
2019-02-27T11:43:01.106Z,25.80
2019-02-27T11:45:29.873Z,25.50
2019-02-27T11:47:58.430Z,25.10
2019-02-27T11:50:26.940Z,25.30
2019-02-27T11:52:55.547Z,25.00
2019-02-27T11:55:24.629Z,24.80
2019-02-27T11:57:53.309Z,24.20
2019-02-27T12:00:27.324Z,23.90
2019-02-27T12:02:56.408Z,24.20
2019-02-27T12:05:30.257Z,23.80
2019-02-27T12:07:56.007Z,23.40
2019-02-27T12:10:26.516Z,22.80
2019-02-27T12:12:59.569Z,22.60
2019-02-27T12:15:27.196Z,22.80
2019-02-27T12:17:59.955Z,22.80
2019-02-27T12:20:25.688Z,22.20
2019-02-27T12:22:54.165Z,21.80
2019-02-27T12:25:26.891Z,22.00
2019-02-27T12:27:54.764Z,22.20
2019-02-27T12:30:30.790Z,22.10
2019-02-27T12:32:59.480Z,22.70
2019-02-27T12:35:30.497Z,23.00
2019-02-27T12:37:58.952Z,23.00
2019-02-27T12:40:27.683Z,23.30
2019-02-27T12:42:56.128Z,23.50
2019-02-27T12:45:26.765Z,23.40
2019-02-27T12:47:55.542Z,22.30
2019-02-27T12:50:27.036Z,22.50
2019-02-27T12:52:55.891Z,22.30
2019-02-27T12:55:24.591Z,22.50
2019-02-27T12:57:53.146Z,22.40
2019-02-27T13:00:24.519Z,22.40
2019-02-27T13:02:53.100Z,22.20
2019-02-27T13:05:26.469Z,22.30
2019-02-27T13:07:52.146Z,22.20
2019-02-27T13:10:22.301Z,22.20
2019-02-27T13:12:51.956Z,21.90
2019-02-27T13:15:26.972Z,22.30
2019-02-27T13:17:57.446Z,22.40
2019-02-27T13:20:31.044Z,21.80
2019-02-27T13:23:04.131Z,21.70
2019-02-27T13:25:30.461Z,22.00
2019-02-27T13:27:58.992Z,22.00
2019-02-27T13:30:28.253Z,21.70
2019-02-27T13:33:00.587Z,21.50
2019-02-27T13:35:28.590Z,21.80
2019-02-27T13:37:57.479Z,22.00
2019-02-27T13:40:27.293Z,22.30
2019-02-27T13:42:55.921Z,21.80
2019-02-27T13:45:32.454Z,21.40
2019-02-27T13:48:04.932Z,21.10
2019-02-27T13:50:31.152Z,21.50
2019-02-27T13:53:02.311Z,21.80
2019-02-27T13:55:30.776Z,21.90
2019-02-27T13:58:03.288Z,22.10
2019-02-27T14:00:30.973Z,22.20
2019-02-27T14:02:59.783Z,22.40
2019-02-27T14:05:29.510Z,22.50
2019-02-27T14:07:58.772Z,22.20
2019-02-27T14:10:32.427Z,22.40
2019-02-27T14:13:01.479Z,22.30
2019-02-27T14:15:36.824Z,22.30
2019-02-27T14:18:05.578Z,22.30
2019-02-27T14:20:34.120Z,22.20
2019-02-27T14:23:02.587Z,21.40
2019-02-27T14:25:33.307Z,21.30
2019-02-27T14:28:13.663Z,21.20
2019-02-27T14:30:50.446Z,21.00
2019-02-27T14:33:19.563Z,20.80
2019-02-27T14:35:49.011Z,20.80
2019-02-27T14:38:17.468Z,20.40
2019-02-27T14:40:46.063Z,20.00
2019-02-27T14:43:14.512Z,19.70
2019-02-27T14:45:42.989Z,19.50
2019-02-27T14:48:11.512Z,19.40
2019-02-27T14:50:40.045Z,19.30
2019-02-27T14:53:08.699Z,19.30
2019-02-27T14:55:37.514Z,19.30
2019-02-27T14:58:06.227Z,19.10
2019-02-27T15:00:39.807Z,19.00
2019-02-27T15:03:06.713Z,19.10
2019-02-27T15:05:36.801Z,19.10
2019-02-27T15:08:05.638Z,18.80
2019-02-27T15:10:34.766Z,18.60
2019-02-27T15:13:03.242Z,18.50
2019-02-27T15:15:32.670Z,18.40
2019-02-27T15:18:01.613Z,18.20
2019-02-27T15:20:30.745Z,18.10
2019-02-27T15:22:59.468Z,17.90
2019-02-27T15:25:28.173Z,17.80
2019-02-27T15:27:58.670Z,17.80
2019-02-27T15:30:31.739Z,17.80
2019-02-27T15:33:03.820Z,17.70
2019-02-27T15:35:30.491Z,17.60
2019-02-27T15:38:01.220Z,17.40
2019-02-27T15:40:30.784Z,17.20
2019-02-27T15:42:59.316Z,17.10
2019-02-27T15:45:28.751Z,17.00
2019-02-27T15:47:57.469Z,16.90
2019-02-27T15:50:28.248Z,16.80
2019-02-27T15:52:56.819Z,16.70
2019-02-27T15:55:25.451Z,16.60
2019-02-27T15:57:54.232Z,16.60
2019-02-27T16:00:26.463Z,16.50
2019-02-27T16:02:55.283Z,16.40
2019-02-27T16:05:23.894Z,16.20
2019-02-27T16:07:52.427Z,16.10
2019-02-27T16:10:22.535Z,15.90
2019-02-27T16:12:51.530Z,15.80
2019-02-27T16:15:22.049Z,15.70
2019-02-27T16:17:50.838Z,15.60
2019-02-27T16:20:29.250Z,15.40
2019-02-27T16:22:57.793Z,15.20
2019-02-27T16:25:27.498Z,15.10
2019-02-27T16:27:56.027Z,14.90
2019-02-27T16:30:31.339Z,14.70
2019-02-27T16:32:56.945Z,14.50
2019-02-27T16:35:25.403Z,14.30
2019-02-27T16:37:57.673Z,14.10
2019-02-27T16:40:25.500Z,13.90
2019-02-27T16:42:54.144Z,13.70
2019-02-27T16:45:33.549Z,13.50
2019-02-27T16:48:01.460Z,13.20
2019-02-27T16:50:29.988Z,12.90
2019-02-27T16:52:58.546Z,12.70
2019-02-27T16:55:28.934Z,12.40
2019-02-27T16:57:57.831Z,12.10
2019-02-27T17:00:37.500Z,11.80
2019-02-27T17:03:05.968Z,11.60
2019-02-27T17:05:34.435Z,11.40
2019-02-27T17:08:02.979Z,11.10
2019-02-27T17:10:38.435Z,11.00
2019-02-27T17:13:07.025Z,10.60
2019-02-27T17:15:36.415Z,10.40
2019-02-27T17:18:05.324Z,10.10
2019-02-27T17:20:34.021Z,10.00
2019-02-27T17:23:07.640Z,9.70
2019-02-27T17:25:32.981Z,9.60
2019-02-27T17:28:01.565Z,9.30
2019-02-27T17:30:37.802Z,9.10
2019-02-27T17:33:05.932Z,9.00
2019-02-27T17:35:34.527Z,8.90
2019-02-27T17:38:03.234Z,8.70
2019-02-27T17:40:36.491Z,8.50
2019-02-27T17:43:02.032Z,8.30
2019-02-27T17:45:30.505Z,8.10
2019-02-27T17:47:59.055Z,7.90
2019-02-27T17:50:31.275Z,7.90
2019-02-27T17:52:57.836Z,7.70
2019-02-27T17:55:26.456Z,7.60
2019-02-27T17:57:57.999Z,7.50
2019-02-27T18:00:50.087Z,7.30
2019-02-27T18:03:17.124Z,7.20
2019-02-27T18:05:45.585Z,7.10
2019-02-27T18:08:16.266Z,7.10
2019-02-27T18:10:44.277Z,6.80
2019-02-27T18:13:12.730Z,6.70
2019-02-27T18:15:41.487Z,6.80
2019-02-27T18:18:10.650Z,6.80
2019-02-27T18:20:39.411Z,6.70
2019-02-27T18:23:07.884Z,6.60
2019-02-27T18:25:41.042Z,6.30
2019-02-27T18:28:06.651Z,6.30
2019-02-27T18:30:35.107Z,6.20
2019-02-27T18:33:03.564Z,6.10
2019-02-27T18:35:32.088Z,5.80
2019-02-27T18:38:00.828Z,5.80
2019-02-27T18:40:29.318Z,5.60
2019-02-27T18:42:57.788Z,5.40
2019-02-27T18:45:28.126Z,5.40
2019-02-27T18:47:58.598Z,5.40
2019-02-27T18:50:26.859Z,5.20
2019-02-27T18:52:55.338Z,5.10
2019-02-27T18:55:29.538Z,5.00
2019-02-27T18:57:53.977Z,4.80
2019-02-27T19:00:29.435Z,4.80
2019-02-27T19:03:00.500Z,4.80
2019-02-27T19:05:29.051Z,4.80
2019-02-27T19:07:57.727Z,4.80
2019-02-27T19:10:26.254Z,4.80
2019-02-27T19:12:59.990Z,4.70
2019-02-27T19:15:28.328Z,4.70
2019-02-27T19:17:56.864Z,4.60
2019-02-27T19:20:31.392Z,4.60
2019-02-27T19:23:00.469Z,4.40
2019-02-27T19:25:34.030Z,4.30
2019-02-27T19:28:01.283Z,4.20
2019-02-27T19:30:30.183Z,4.10
2019-02-27T19:33:01.869Z,4.20
2019-02-27T19:35:29.013Z,4.10
2019-02-27T19:37:57.538Z,3.90
2019-02-27T19:40:29.891Z,3.80
2019-02-27T19:43:06.401Z,3.70
2019-02-27T19:45:35.976Z,3.70
2019-02-27T19:48:05.291Z,3.50
2019-02-27T19:50:33.934Z,3.50
2019-02-27T19:53:06.600Z,3.50
2019-02-27T19:55:33.530Z,3.40
2019-02-27T19:58:02.055Z,3.40
2019-02-27T20:00:35.052Z,3.30
2019-02-27T20:03:02.458Z,3.20
2019-02-27T20:05:31.466Z,3.20
2019-02-27T20:08:02.250Z,3.20
2019-02-27T20:10:33.115Z,3.20
2019-02-27T20:13:00.865Z,3.00
2019-02-27T20:15:29.500Z,2.90
2019-02-27T20:17:58.021Z,2.80
2019-02-27T20:20:26.755Z,2.80
2019-02-27T20:22:56.393Z,2.70
2019-02-27T20:25:32.783Z,2.70
2019-02-27T20:28:01.091Z,2.80
2019-02-27T20:30:29.684Z,2.70
2019-02-27T20:32:59.750Z,2.80
2019-02-27T20:35:28.493Z,2.90
2019-02-27T20:37:56.954Z,3.10
2019-02-27T20:40:27.561Z,3.10
2019-02-27T20:42:55.755Z,3.00
2019-02-27T20:45:26.679Z,3.20
2019-02-27T20:48:00.559Z,3.20
2019-02-27T20:50:35.009Z,3.30
2019-02-27T20:52:58.906Z,3.30
2019-02-27T20:55:27.415Z,3.30
2019-02-27T20:57:56.122Z,3.40
2019-02-27T21:00:25.062Z,3.30
2019-02-27T21:02:54.164Z,3.30
2019-02-27T21:05:22.866Z,3.20
2019-02-27T21:07:51.569Z,3.20
2019-02-27T21:10:25.704Z,3.20
2019-02-27T21:12:54.590Z,3.10
2019-02-27T21:15:24.821Z,2.90
2019-02-27T21:17:57.780Z,2.90
2019-02-27T21:20:23.902Z,2.70
2019-02-27T21:22:52.432Z,2.50
2019-02-27T21:25:20.896Z,2.30
2019-02-27T21:27:49.462Z,2.20
2019-02-27T21:30:23.091Z,2.10
2019-02-27T21:32:51.594Z,2.00
2019-02-27T21:35:20.094Z,1.90
2019-02-27T21:37:48.632Z,1.80
2019-02-27T21:40:18.154Z,1.70
2019-02-27T21:42:47.013Z,1.60
2019-02-27T21:45:22.362Z,1.60
2019-02-27T21:47:51.706Z,1.50
2019-02-27T21:50:25.299Z,1.40
2019-02-27T21:52:54.729Z,1.40
2019-02-27T21:55:30.809Z,1.30
2019-02-27T21:57:59.353Z,1.20
2019-02-27T22:00:29.848Z,1.20
2019-02-27T22:03:04.096Z,1.10
2019-02-27T22:05:29.209Z,1.00
2019-02-27T22:07:57.737Z,1.00
2019-02-27T22:10:26.289Z,1.00
2019-02-27T22:12:54.817Z,1.00
2019-02-27T22:15:30.447Z,0.90
2019-02-27T22:17:58.900Z,0.90
2019-02-27T22:20:27.517Z,0.80
2019-02-27T22:22:56.111Z,0.80
2019-02-27T22:25:30.163Z,0.80
2019-02-27T22:27:54.747Z,0.70
2019-02-27T22:30:23.784Z,0.50
2019-02-27T22:32:52.313Z,0.50
2019-02-27T22:35:20.907Z,0.40
2019-02-27T22:37:52.471Z,0.40
2019-02-27T22:40:24.003Z,0.40
2019-02-27T22:42:52.467Z,0.40
2019-02-27T22:45:21.382Z,0.50
2019-02-27T22:47:53.996Z,0.60
2019-02-27T22:50:21.560Z,0.50
2019-02-27T22:52:54.097Z,0.40
2019-02-27T22:55:20.199Z,0.30
2019-02-27T22:57:48.671Z,0.20
2019-02-27T23:00:56.214Z,0.20
2019-02-27T23:03:28.017Z,0.10
2019-02-27T23:05:56.549Z,0.20
2019-02-27T23:08:25.175Z,0.30
2019-02-27T23:10:53.759Z,0.40
2019-02-27T23:13:22.457Z,0.30
2019-02-27T23:15:51.680Z,0.30
2019-02-27T23:18:20.156Z,0.10
2019-02-27T23:20:48.702Z,0.10
2019-02-27T23:23:17.151Z,0.10
2019-02-27T23:25:46.549Z,0.10
2019-02-27T23:28:15.706Z,0.10
2019-02-27T23:30:46.978Z,0.00
2019-02-27T23:33:14.545Z,-0.10
2019-02-27T23:35:43.039Z,-0.10
2019-02-27T23:38:11.512Z,-0.10
2019-02-27T23:40:40.082Z,0.00
2019-02-27T23:43:08.556Z,0.00
2019-02-27T23:45:37.029Z,-0.10
2019-02-27T23:48:05.494Z,-0.10
2019-02-27T23:50:33.968Z,-0.20
2019-02-27T23:53:02.437Z,-0.20
2019-02-27T23:55:30.971Z,-0.20
2019-02-27T23:57:59.429Z,-0.30
